Cantonment, Florida
Current Conditions -  °F | °C
As of 3:53 AM on Thursday 27 Nov 2014 (Local Time) from KPNS Reporting Station
Clear Clear  
Wind Chill: 50°   Ceiling: Unl
Heat Index: 50°   Visibility: 10mi
Dew Point: 42°   Wind: 7mph
Humidity: 74%   Direction: 300°WNW
Pressure: 30.26"   Gusts: NA
Location:  30.61°N, 87.34°W
Report Text: KPNS 270953Z AUTO 30006KT 10SM CLR 10/06 A3026 RMK AO2 SLP249 T01000056
Loading
Personal Weather Stations






























Interactive Weather Map New forecast layout! Learn more

10-Day Weather Forecast

Advertisements
Track Severe Weather on mobile